Time;durP1;ratioP1;P1;durP2;ratioP2;P2;SDS_P1;SDS_P2;PMS_P1;PMS_P2;Temp;Humidity;BMP_temperature;BMP_pressure;BME280_temperature;BME280_humidity;BME280_pressure;Samples;Min_cycle;Max_cycle;Signal;HPM_P1;HPM_P2
2021/07/28 00:01:13;;;;;;;;;;;19.10;99.90;;;;;;1919176;73;20186;-70
2021/07/28 00:03:40;;;;;;;;;;;18.90;99.90;;;;;;1917176;73;20648;-70
2021/07/28 00:06:07;;;;;;;;;;;18.80;99.90;;;;;;1917648;73;20186;-69
2021/07/28 00:08:34;;;;;;;;;;;18.70;99.90;;;;;;1916781;72;20625;-69
2021/07/28 00:11:01;;;;;;;;;;;19.00;99.90;;;;;;1915855;73;20204;-69
2021/07/28 00:13:27;;;;;;;;;;;18.90;99.90;;;;;;1918770;72;20221;-69
2021/07/28 00:15:55;;;;;;;;;;;19.00;99.90;;;;;;1916911;73;20263;-69
2021/07/28 00:18:40;;;;;;;;;;;18.90;99.90;;;;;;1916096;73;20216;-69
2021/07/28 00:23:35;;;;;;;;;;;19.00;99.90;;;;;;1918473;73;20236;-69
2021/07/28 00:26:02;;;;;;;;;;;18.80;99.90;;;;;;1917882;73;20238;-69
2021/07/28 00:28:29;;;;;;;;;;;18.70;99.90;;;;;;1918450;73;20246;-69
2021/07/28 00:30:56;;;;;;;;;;;18.90;99.90;;;;;;1918735;73;20175;-69
2021/07/28 00:33:22;;;;;;;;;;;18.90;99.90;;;;;;1919225;73;20187;-70
2021/07/28 00:35:49;;;;;;;;;;;18.90;99.90;;;;;;1916988;73;20176;-70
2021/07/28 00:38:16;;;;;;;;;;;19.00;99.90;;;;;;1919733;73;20176;-70
2021/07/28 00:40:44;;;;;;;;;;;19.00;99.90;;;;;;1917146;73;20187;-69
2021/07/28 00:43:12;;;;;;;;;;;18.90;99.90;;;;;;1918603;73;20521;-67
2021/07/28 00:45:40;;;;;;;;;;;18.70;99.90;;;;;;1918964;73;20993;-67
2021/07/28 00:48:08;;;;;;;;;;;18.70;99.90;;;;;;1917456;73;20875;-67
2021/07/28 00:50:35;;;;;;;;;;;18.80;99.90;;;;;;1916736;73;20212;-68
2021/07/28 00:53:02;;;;;;;;;;;18.80;99.90;;;;;;1919641;73;20171;-67
2021/07/28 00:55:31;;;;;;;;;;;18.80;99.90;;;;;;1917439;73;20253;-68
2021/07/28 00:57:59;;;;;;;;;;;18.90;99.90;;;;;;1919458;73;20223;-67
2021/07/28 01:00:27;;;;;;;;;;;18.80;99.90;;;;;;1915898;73;20782;-67
2021/07/28 01:02:54;;;;;;;;;;;18.50;99.90;;;;;;1915538;73;20858;-67
2021/07/28 01:05:21;;;;;;;;;;;18.40;99.90;;;;;;1917590;73;20802;-67
2021/07/28 01:07:48;;;;;;;;;;;18.50;99.90;;;;;;1915742;73;20257;-67
2021/07/28 01:10:14;;;;;;;;;;;18.50;99.90;;;;;;1918796;73;20223;-67
2021/07/28 01:12:52;;;;;;;;;;;18.40;99.90;;;;;;1917346;73;20180;-67
2021/07/28 01:15:31;;;;;;;;;;;18.50;99.90;;;;;;1917730;73;20231;-67
2021/07/28 01:17:44;;;;;;;;;;;18.40;99.90;;;;;;1912254;73;20235;-67
2021/07/28 01:20:11;;;;;;;;;;;18.40;99.90;;;;;;1918155;73;20197;-67
2021/07/28 01:22:38;;;;;;;;;;;18.60;99.90;;;;;;1917227;73;20999;-67
2021/07/28 01:25:05;;;;;;;;;;;18.50;99.90;;;;;;1914756;73;20199;-67
2021/07/28 01:27:32;;;;;;;;;;;18.40;99.90;;;;;;1917872;73;20189;-67
2021/07/28 01:29:58;;;;;;;;;;;18.50;99.90;;;;;;1916838;73;20250;-67
2021/07/28 01:32:25;;;;;;;;;;;18.40;99.90;;;;;;1916125;73;20262;-67
2021/07/28 01:34:53;;;;;;;;;;;18.40;99.90;;;;;;1917915;73;20256;-67
2021/07/28 01:37:20;;;;;;;;;;;18.50;99.90;;;;;;1916101;73;20622;-68
2021/07/28 01:39:47;;;;;;;;;;;18.60;99.90;;;;;;1915364;73;20171;-68
2021/07/28 01:42:13;;;;;;;;;;;18.40;99.90;;;;;;1917611;73;20596;-68
2021/07/28 01:44:41;;;;;;;;;;;18.50;99.90;;;;;;1917398;73;20223;-68
2021/07/28 01:47:07;;;;;;;;;;;18.50;99.90;;;;;;1918446;73;20227;-70
2021/07/28 01:49:34;;;;;;;;;;;18.30;99.90;;;;;;1917482;72;21012;-71
2021/07/28 01:52:01;;;;;;;;;;;18.40;99.90;;;;;;1917931;73;20187;-70
2021/07/28 01:54:28;;;;;;;;;;;18.30;99.90;;;;;;1914757;73;20608;-70
2021/07/28 01:56:54;;;;;;;;;;;18.40;99.90;;;;;;1916089;73;20192;-68
2021/07/28 01:59:23;;;;;;;;;;;18.20;99.90;;;;;;1916726;73;20188;-68
2021/07/28 02:01:49;;;;;;;;;;;18.20;99.90;;;;;;1918498;73;20183;-68
2021/07/28 02:04:16;;;;;;;;;;;18.30;99.90;;;;;;1917735;73;20185;-68
2021/07/28 02:06:43;;;;;;;;;;;18.40;99.90;;;;;;1917263;73;20197;-70
2021/07/28 02:09:10;;;;;;;;;;;18.40;99.90;;;;;;1916370;73;20181;-70
2021/07/28 02:11:37;;;;;;;;;;;18.30;99.90;;;;;;1916879;73;20193;-70
2021/07/28 02:14:05;;;;;;;;;;;18.30;99.90;;;;;;1916759;73;20232;-70
2021/07/28 02:16:32;;;;;;;;;;;18.30;99.90;;;;;;1918019;73;20200;-70
2021/07/28 02:18:59;;;;;;;;;;;18.30;99.90;;;;;;1917752;73;21048;-70
2021/07/28 02:21:25;;;;;;;;;;;18.20;99.90;;;;;;1917959;73;20189;-70
2021/07/28 02:23:52;;;;;;;;;;;18.00;99.90;;;;;;1917319;73;20942;-70
2021/07/28 02:26:19;;;;;;;;;;;18.20;99.90;;;;;;1915720;72;20189;-70
2021/07/28 02:28:46;;;;;;;;;;;18.10;99.90;;;;;;1915033;73;20853;-70
2021/07/28 02:31:13;;;;;;;;;;;18.00;99.90;;;;;;1917210;73;20195;-70
2021/07/28 02:33:39;;;;;;;;;;;17.90;99.90;;;;;;1918192;73;20771;-70
2021/07/28 02:36:06;;;;;;;;;;;17.90;99.90;;;;;;1915517;73;20200;-70
2021/07/28 02:38:33;;;;;;;;;;;17.80;99.90;;;;;;1916150;73;20199;-70
2021/07/28 02:41:00;;;;;;;;;;;17.80;99.90;;;;;;1919321;73;20195;-70
2021/07/28 02:43:26;;;;;;;;;;;17.80;99.90;;;;;;1916917;73;20205;-68
2021/07/28 02:45:53;;;;;;;;;;;18.00;99.90;;;;;;1918535;73;20203;-67
2021/07/28 02:48:20;;;;;;;;;;;17.80;99.90;;;;;;1916648;73;20242;-67
2021/07/28 02:50:47;;;;;;;;;;;17.80;99.90;;;;;;1918638;73;20595;-67
2021/07/28 02:53:14;;;;;;;;;;;18.00;99.90;;;;;;1917874;73;20644;-70
2021/07/28 02:55:41;;;;;;;;;;;17.90;99.90;;;;;;1915327;73;20193;-70
2021/07/28 02:58:07;;;;;;;;;;;18.00;99.90;;;;;;1915181;73;20868;-70
2021/07/28 03:00:34;;;;;;;;;;;17.90;99.90;;;;;;1913154;73;20195;-70
2021/07/28 03:03:01;;;;;;;;;;;17.80;99.90;;;;;;1917803;73;20504;-70
2021/07/28 03:05:28;;;;;;;;;;;17.90;99.90;;;;;;1917248;73;20237;-70
2021/07/28 03:07:54;;;;;;;;;;;17.80;99.90;;;;;;1917359;73;21066;-70
2021/07/28 03:10:21;;;;;;;;;;;17.60;99.90;;;;;;1916222;73;20205;-70
2021/07/28 03:12:48;;;;;;;;;;;17.70;99.90;;;;;;1917945;73;20632;-70
2021/07/28 03:15:15;;;;;;;;;;;17.60;99.90;;;;;;1917604;73;20639;-70
2021/07/28 03:17:42;;;;;;;;;;;17.80;99.90;;;;;;1918725;73;20175;-70
2021/07/28 03:20:09;;;;;;;;;;;17.90;99.90;;;;;;1917150;73;20600;-70
2021/07/28 03:22:35;;;;;;;;;;;17.80;99.90;;;;;;1915670;73;20212;-70
2021/07/28 03:25:02;;;;;;;;;;;17.70;99.90;;;;;;1918892;73;20188;-69
2021/07/28 03:27:29;;;;;;;;;;;17.80;99.90;;;;;;1916982;73;20230;-69
2021/07/28 03:29:56;;;;;;;;;;;18.00;99.90;;;;;;1918333;72;20204;-68
2021/07/28 03:32:23;;;;;;;;;;;17.80;99.90;;;;;;1917425;73;20204;-69
2021/07/28 03:34:49;;;;;;;;;;;17.80;99.90;;;;;;1913676;73;20200;-70
2021/07/28 03:37:16;;;;;;;;;;;17.80;99.90;;;;;;1916169;73;20222;-69
2021/07/28 03:39:43;;;;;;;;;;;17.90;99.90;;;;;;1916576;73;20188;-69
2021/07/28 03:42:11;;;;;;;;;;;17.80;99.90;;;;;;1917662;73;20202;-70
2021/07/28 03:44:38;;;;;;;;;;;17.90;99.90;;;;;;1915444;73;20181;-69
2021/07/28 03:47:05;;;;;;;;;;;17.80;99.90;;;;;;1913960;73;20187;-69
2021/07/28 03:49:31;;;;;;;;;;;17.90;99.90;;;;;;1917180;73;20186;-69
2021/07/28 03:51:58;;;;;;;;;;;17.90;99.90;;;;;;1916112;73;20197;-69
2021/07/28 03:54:25;;;;;;;;;;;17.70;99.90;;;;;;1913501;73;20260;-69
2021/07/28 03:56:52;;;;;;;;;;;17.60;99.90;;;;;;1916180;73;20302;-69
2021/07/28 03:59:19;;;;;;;;;;;17.70;99.90;;;;;;1912919;73;20232;-69
2021/07/28 04:01:45;;;;;;;;;;;17.70;99.90;;;;;;1916930;73;20193;-69
2021/07/28 04:04:12;;;;;;;;;;;17.80;99.90;;;;;;1918822;73;20712;-69
2021/07/28 04:06:39;;;;;;;;;;;17.70;99.90;;;;;;1917132;73;20203;-70
2021/07/28 04:09:06;;;;;;;;;;;17.80;99.90;;;;;;1914375;73;20207;-70
2021/07/28 04:11:33;;;;;;;;;;;17.90;99.90;;;;;;1917932;73;20194;-70
2021/07/28 04:13:59;;;;;;;;;;;17.80;99.90;;;;;;1919694;73;20519;-69
2021/07/28 04:16:26;;;;;;;;;;;17.80;99.90;;;;;;1915798;73;20184;-69
2021/07/28 04:18:53;;;;;;;;;;;17.50;99.90;;;;;;1920504;73;20874;-70
2021/07/28 04:21:20;;;;;;;;;;;17.70;99.90;;;;;;1915379;73;20182;-69
2021/07/28 04:23:46;;;;;;;;;;;17.80;99.90;;;;;;1915435;73;20195;-70
2021/07/28 04:26:13;;;;;;;;;;;17.70;99.90;;;;;;1917885;73;20250;-69
2021/07/28 04:28:40;;;;;;;;;;;17.60;99.90;;;;;;1914806;73;20208;-69
2021/07/28 04:31:07;;;;;;;;;;;17.80;99.90;;;;;;1916029;73;20533;-70
2021/07/28 04:33:34;;;;;;;;;;;17.80;99.90;;;;;;1915118;73;20193;-70
2021/07/28 04:36:01;;;;;;;;;;;17.80;99.90;;;;;;1914073;73;20191;-70
2021/07/28 04:38:27;;;;;;;;;;;17.80;99.90;;;;;;1915160;73;20616;-70
2021/07/28 04:40:54;;;;;;;;;;;17.80;99.90;;;;;;1915465;73;20224;-70
2021/07/28 04:43:21;;;;;;;;;;;17.90;99.90;;;;;;1918038;73;20611;-70
2021/07/28 04:45:49;;;;;;;;;;;17.90;99.90;;;;;;1915129;73;20185;-70
2021/07/28 04:48:16;;;;;;;;;;;18.00;99.90;;;;;;1913870;73;21051;-70
2021/07/28 04:50:43;;;;;;;;;;;17.90;99.90;;;;;;1916205;73;20219;-69
2021/07/28 04:53:10;;;;;;;;;;;17.90;99.90;;;;;;1915271;73;20967;-70
2021/07/28 04:55:37;;;;;;;;;;;17.80;99.90;;;;;;1917019;73;20198;-70
2021/07/28 04:58:03;;;;;;;;;;;17.90;99.90;;;;;;1916082;73;20483;-70
2021/07/28 05:00:30;;;;;;;;;;;18.00;99.90;;;;;;1918255;73;20180;-70
2021/07/28 05:02:57;;;;;;;;;;;17.90;99.90;;;;;;1915004;73;20268;-68
2021/07/28 05:05:24;;;;;;;;;;;17.90;99.90;;;;;;1918033;73;21136;-68
2021/07/28 05:07:51;;;;;;;;;;;17.90;99.90;;;;;;1916351;73;20209;-68
2021/07/28 05:10:17;;;;;;;;;;;18.00;99.90;;;;;;1916116;73;20628;-69
2021/07/28 05:12:44;;;;;;;;;;;17.90;99.90;;;;;;1916460;73;20243;-68
2021/07/28 05:15:11;;;;;;;;;;;17.80;99.90;;;;;;1915898;73;20657;-68
2021/07/28 05:17:38;;;;;;;;;;;17.90;99.90;;;;;;1917139;73;20238;-68
2021/07/28 05:20:05;;;;;;;;;;;18.00;99.90;;;;;;1915080;73;20192;-68
2021/07/28 05:22:32;;;;;;;;;;;17.90;99.90;;;;;;1916099;73;20632;-68
2021/07/28 05:24:59;;;;;;;;;;;17.90;99.90;;;;;;1916070;73;20224;-68
2021/07/28 05:27:27;;;;;;;;;;;18.00;99.90;;;;;;1916969;73;20624;-69
2021/07/28 05:29:55;;;;;;;;;;;18.00;99.90;;;;;;1915858;73;20213;-69
2021/07/28 05:32:22;;;;;;;;;;;18.10;99.90;;;;;;1918383;73;20180;-68
2021/07/28 05:34:51;;;;;;;;;;;18.10;99.90;;;;;;1915760;73;20199;-69
2021/07/28 05:37:18;;;;;;;;;;;18.10;99.90;;;;;;1913598;73;20663;-69
2021/07/28 05:39:45;;;;;;;;;;;18.10;99.90;;;;;;1916615;73;21118;-68
2021/07/28 05:42:11;;;;;;;;;;;18.20;99.90;;;;;;1915640;73;20223;-69
2021/07/28 05:44:39;;;;;;;;;;;18.20;99.90;;;;;;1914467;73;20227;-68
2021/07/28 05:47:06;;;;;;;;;;;18.20;99.90;;;;;;1913235;73;20200;-69
2021/07/28 05:49:33;;;;;;;;;;;18.20;99.90;;;;;;1916036;73;20200;-69
2021/07/28 05:52:00;;;;;;;;;;;18.10;99.90;;;;;;1916881;73;20553;-69
2021/07/28 05:54:26;;;;;;;;;;;18.10;99.90;;;;;;1913670;73;20204;-69
2021/07/28 05:56:53;;;;;;;;;;;18.20;99.90;;;;;;1913365;73;20250;-69
2021/07/28 05:59:21;;;;;;;;;;;18.20;99.90;;;;;;1917830;73;20210;-69
2021/07/28 06:01:48;;;;;;;;;;;18.20;99.90;;;;;;1913499;73;20193;-69
2021/07/28 06:04:15;;;;;;;;;;;18.30;99.90;;;;;;1914358;73;20220;-69
2021/07/28 06:06:41;;;;;;;;;;;18.40;99.90;;;;;;1916586;73;20202;-69
2021/07/28 06:09:08;;;;;;;;;;;18.40;99.90;;;;;;1916732;73;20193;-69
2021/07/28 06:11:35;;;;;;;;;;;18.50;99.90;;;;;;1918122;73;20229;-69
2021/07/28 06:14:02;;;;;;;;;;;18.50;99.90;;;;;;1915487;73;20984;-69
2021/07/28 06:16:29;;;;;;;;;;;18.60;99.90;;;;;;1912515;73;20261;-69
2021/07/28 06:18:55;;;;;;;;;;;18.40;99.90;;;;;;1914498;73;20842;-69
2021/07/28 06:21:22;;;;;;;;;;;18.50;99.90;;;;;;1913122;73;20186;-69
2021/07/28 06:23:49;;;;;;;;;;;18.40;99.90;;;;;;1912787;73;20631;-69
2021/07/28 06:26:16;;;;;;;;;;;18.40;99.90;;;;;;1912268;73;20185;-71
2021/07/28 06:28:43;;;;;;;;;;;18.50;99.90;;;;;;1913649;73;20216;-70
2021/07/28 06:31:09;;;;;;;;;;;18.50;99.90;;;;;;1912675;73;20189;-71
2021/07/28 06:33:36;;;;;;;;;;;18.60;99.90;;;;;;1912245;73;20227;-70
2021/07/28 06:36:03;;;;;;;;;;;18.70;99.90;;;;;;1910282;73;20223;-70
2021/07/28 06:38:30;;;;;;;;;;;18.60;99.90;;;;;;1910224;73;20233;-71
2021/07/28 06:40:57;;;;;;;;;;;18.60;99.90;;;;;;1910714;73;20494;-71
2021/07/28 06:43:23;;;;;;;;;;;18.60;99.90;;;;;;1910331;73;20205;-72
2021/07/28 06:45:50;;;;;;;;;;;18.60;99.90;;;;;;1912129;73;20271;-71
2021/07/28 06:48:17;;;;;;;;;;;18.60;99.90;;;;;;1912006;73;20208;-71
2021/07/28 06:50:44;;;;;;;;;;;18.60;99.90;;;;;;1910334;73;20229;-71
2021/07/28 06:53:11;;;;;;;;;;;18.70;99.90;;;;;;1912335;73;20624;-72
2021/07/28 06:55:38;;;;;;;;;;;18.80;99.90;;;;;;1912003;72;20189;-72
2021/07/28 06:58:05;;;;;;;;;;;18.80;99.90;;;;;;1911855;73;20196;-72
2021/07/28 07:00:33;;;;;;;;;;;18.80;99.90;;;;;;1911922;73;20671;-71
2021/07/28 07:03:00;;;;;;;;;;;18.70;99.90;;;;;;1912155;73;20252;-72
2021/07/28 07:05:28;;;;;;;;;;;18.80;99.90;;;;;;1910606;73;20192;-71
2021/07/28 07:07:54;;;;;;;;;;;18.80;99.90;;;;;;1909863;73;20675;-72
2021/07/28 07:10:22;;;;;;;;;;;18.90;99.90;;;;;;1911156;73;20205;-71
2021/07/28 07:12:48;;;;;;;;;;;19.00;99.90;;;;;;1912894;73;20203;-71
2021/07/28 07:15:15;;;;;;;;;;;19.10;99.90;;;;;;1916524;74;20139;-71
2021/07/28 07:17:42;;;;;;;;;;;19.30;99.90;;;;;;1912989;70;20207;-72
2021/07/28 07:20:09;;;;;;;;;;;19.30;99.90;;;;;;1861227;76;20136;-71
2021/07/28 07:22:36;;;;;;;;;;;19.40;99.90;;;;;;1861347;76;20206;-71
2021/07/28 07:25:04;;;;;;;;;;;19.50;99.90;;;;;;1859550;76;20291;-71
2021/07/28 07:27:30;;;;;;;;;;;19.50;99.90;;;;;;1858663;76;20136;-71
2021/07/28 07:30:17;;;;;;;;;;;19.50;99.90;;;;;;1857411;77;20194;-71
2021/07/28 07:35:36;;;;;;;;;;;19.50;99.90;;;;;;1970497;72;20118;-70
2021/07/28 07:38:03;;;;;;;;;;;19.40;99.90;;;;;;1960221;72;20191;-71
2021/07/28 07:40:30;;;;;;;;;;;19.40;99.90;;;;;;1940682;74;20180;-71
2021/07/28 07:42:56;;;;;;;;;;;19.40;99.90;;;;;;1941292;74;20271;-72
2021/07/28 07:45:23;;;;;;;;;;;19.40;99.90;;;;;;1924893;74;20167;-71
2021/07/28 07:47:50;;;;;;;;;;;19.50;99.90;;;;;;1943358;72;20162;-71
2021/07/28 07:50:17;;;;;;;;;;;19.60;99.90;;;;;;1934604;74;20198;-72
2021/07/28 07:52:44;;;;;;;;;;;19.70;99.90;;;;;;1903477;74;20176;-72
2021/07/28 07:55:11;;;;;;;;;;;19.70;99.90;;;;;;1937797;74;20220;-71
2021/07/28 07:57:37;;;;;;;;;;;19.80;99.90;;;;;;1943739;73;20167;-71
2021/07/28 08:00:05;;;;;;;;;;;19.90;99.90;;;;;;1942458;74;20167;-70
2021/07/28 08:02:33;;;;;;;;;;;19.90;99.90;;;;;;1901652;74;20184;-71
2021/07/28 08:05:00;;;;;;;;;;;19.90;99.90;;;;;;1933524;73;20440;-72
2021/07/28 08:07:27;;;;;;;;;;;19.90;99.90;;;;;;1931175;74;20248;-70
2021/07/28 08:09:54;;;;;;;;;;;19.80;99.90;;;;;;1932890;72;20163;-71
2021/07/28 08:12:20;;;;;;;;;;;19.80;99.90;;;;;;1915767;73;20158;-70
2021/07/28 08:14:48;;;;;;;;;;;19.80;99.90;;;;;;1940612;73;20109;-71
2021/07/28 08:17:15;;;;;;;;;;;19.80;99.90;;;;;;1934552;74;20186;-71
2021/07/28 08:19:42;;;;;;;;;;;19.90;99.90;;;;;;1938074;73;20175;-71
2021/07/28 08:22:09;;;;;;;;;;;20.00;99.90;;;;;;1944069;73;20171;-71
2021/07/28 08:24:36;;;;;;;;;;;20.10;99.90;;;;;;1942633;74;20198;-71
2021/07/28 08:27:02;;;;;;;;;;;20.30;99.90;;;;;;1939110;72;20244;-72
2021/07/28 08:29:29;;;;;;;;;;;20.50;99.90;;;;;;1932136;74;20205;-71
2021/07/28 08:31:56;;;;;;;;;;;20.50;99.90;;;;;;1928158;73;20159;-72
2021/07/28 08:34:23;;;;;;;;;;;20.50;99.90;;;;;;1940701;73;20160;-71
2021/07/28 08:36:50;;;;;;;;;;;20.40;99.90;;;;;;1933271;73;20186;-73
2021/07/28 08:39:17;;;;;;;;;;;20.60;99.90;;;;;;1931356;72;20290;-71
2021/07/28 08:41:46;;;;;;;;;;;20.60;99.90;;;;;;1907040;73;20173;-72
2021/07/28 08:44:13;;;;;;;;;;;20.60;99.90;;;;;;1942192;73;20170;-72
2021/07/28 08:46:40;;;;;;;;;;;20.50;99.90;;;;;;1937246;74;20178;-72
2021/07/28 08:49:07;;;;;;;;;;;20.60;99.90;;;;;;1890441;74;20220;-71
2021/07/28 08:51:34;;;;;;;;;;;20.70;99.90;;;;;;1946421;73;20147;-72
2021/07/28 08:54:01;;;;;;;;;;;20.90;99.90;;;;;;1964389;72;20160;-71
2021/07/28 08:56:28;;;;;;;;;;;20.80;99.90;;;;;;1949148;72;20151;-71
2021/07/28 08:58:55;;;;;;;;;;;20.70;99.90;;;;;;1926789;74;20169;-71
2021/07/28 09:01:22;;;;;;;;;;;20.80;99.90;;;;;;1921653;74;20170;-70
2021/07/28 09:03:48;;;;;;;;;;;20.90;99.90;;;;;;1912850;73;20169;-71
2021/07/28 09:06:28;;;;;;;;;;;21.00;99.90;;;;;;1912331;73;20209;-71
2021/07/28 09:08:58;;;;;;;;;;;20.90;99.90;;;;;;1921670;74;20419;-70
2021/07/28 09:11:25;;;;;;;;;;;20.80;99.90;;;;;;1942146;73;20271;-71
2021/07/28 09:13:54;;;;;;;;;;;21.00;99.90;;;;;;1937030;74;20171;-71
2021/07/28 09:16:22;;;;;;;;;;;21.10;99.90;;;;;;1941288;73;20237;-70
2021/07/28 09:18:50;;;;;;;;;;;21.10;99.90;;;;;;1929737;73;20169;-71
2021/07/28 09:21:21;;;;;;;;;;;21.10;99.90;;;;;;1913401;73;20192;-71
2021/07/28 09:23:49;;;;;;;;;;;21.20;99.90;;;;;;1923206;74;20232;-70
2021/07/28 09:26:38;;;;;;;;;;;21.40;99.90;;;;;;1914168;73;20408;-71
2021/07/28 09:29:04;;;;;;;;;;;21.60;99.90;;;;;;1908076;74;20185;-71
2021/07/28 09:31:35;;;;;;;;;;;21.70;99.90;;;;;;1918389;73;20440;-71
2021/07/28 09:34:10;;;;;;;;;;;21.50;99.90;;;;;;1939893;73;20148;-71
2021/07/28 09:36:37;;;;;;;;;;;21.40;99.90;;;;;;1905640;74;20455;-71
2021/07/28 09:39:04;;;;;;;;;;;21.40;99.90;;;;;;1893183;74;20129;-71
2021/07/28 09:41:32;;;;;;;;;;;21.50;99.90;;;;;;1896505;73;20165;-71
2021/07/28 09:44:03;;;;;;;;;;;21.50;99.90;;;;;;1924806;73;20210;-71
2021/07/28 09:46:34;;;;;;;;;;;21.40;99.90;;;;;;1931422;72;20228;-72
2021/07/28 09:49:02;;;;;;;;;;;21.30;99.90;;;;;;1930495;74;20481;-72
2021/07/28 09:51:33;;;;;;;;;;;21.20;99.90;;;;;;1929110;73;20180;-71
2021/07/28 09:54:04;;;;;;;;;;;21.20;99.90;;;;;;1932473;73;20641;-71
2021/07/28 09:56:41;;;;;;;;;;;21.30;99.90;;;;;;1894872;74;20189;-71
2021/07/28 09:59:08;;;;;;;;;;;21.20;99.90;;;;;;1897908;74;20177;-70
2021/07/28 10:01:36;;;;;;;;;;;21.50;99.90;;;;;;1924287;74;20391;-72
2021/07/28 10:04:05;;;;;;;;;;;21.60;99.90;;;;;;1938848;73;20406;-70
2021/07/28 10:06:39;;;;;;;;;;;21.80;99.90;;;;;;1950979;72;20256;-72
2021/07/28 10:09:08;;;;;;;;;;;21.80;99.90;;;;;;1945955;72;20183;-70
2021/07/28 10:11:36;;;;;;;;;;;21.60;99.90;;;;;;1946277;74;20146;-71
2021/07/28 10:14:03;;;;;;;;;;;21.40;99.90;;;;;;1943649;73;20124;-73
2021/07/28 10:16:30;;;;;;;;;;;21.30;99.90;;;;;;1931914;74;20225;-73
2021/07/28 10:18:58;;;;;;;;;;;21.20;99.90;;;;;;1918082;73;20274;-73
2021/07/28 10:21:26;;;;;;;;;;;21.20;99.90;;;;;;1918012;74;20196;-71
2021/07/28 10:23:54;;;;;;;;;;;21.40;99.90;;;;;;1903689;73;20192;-71
2021/07/28 10:26:21;;;;;;;;;;;21.50;99.90;;;;;;1897525;74;20419;-71
2021/07/28 10:28:49;;;;;;;;;;;21.70;99.90;;;;;;1930520;73;20172;-71
2021/07/28 10:31:20;;;;;;;;;;;22.00;99.90;;;;;;1919449;74;20553;-71
2021/07/28 10:33:50;;;;;;;;;;;22.20;99.90;;;;;;1915952;73;20163;-71
2021/07/28 10:36:21;;;;;;;;;;;22.10;99.90;;;;;;1944412;73;20124;-71
2021/07/28 10:38:51;;;;;;;;;;;21.80;99.90;;;;;;1946280;72;20174;-73
2021/07/28 10:41:38;;;;;;;;;;;21.70;99.90;;;;;;1940137;73;20418;-71
2021/07/28 10:44:13;;;;;;;;;;;21.70;99.90;;;;;;1921256;73;20214;-71
2021/07/28 10:46:57;;;;;;;;;;;21.70;99.90;;;;;;1934837;73;20240;-71
2021/07/28 10:49:25;;;;;;;;;;;21.70;99.90;;;;;;1921963;73;20147;-70
2021/07/28 10:51:53;;;;;;;;;;;21.60;99.90;;;;;;1892501;74;20153;-71
2021/07/28 10:54:22;;;;;;;;;;;21.70;99.90;;;;;;1918372;73;20214;-69
2021/07/28 10:57:07;;;;;;;;;;;21.80;99.90;;;;;;1931218;73;20178;-70
2021/07/28 10:59:43;;;;;;;;;;;21.90;99.90;;;;;;1939515;73;20538;-70
2021/07/28 11:02:10;;;;;;;;;;;22.20;99.90;;;;;;1927003;73;20180;-72
2021/07/28 11:04:37;;;;;;;;;;;22.40;99.90;;;;;;1932205;72;21171;-72
2021/07/28 11:07:04;;;;;;;;;;;22.40;99.90;;;;;;1918878;72;20177;-72
2021/07/28 11:09:30;;;;;;;;;;;22.40;99.90;;;;;;1928449;72;20181;-71
2021/07/28 11:11:57;;;;;;;;;;;22.30;99.90;;;;;;1939036;73;20159;-72
2021/07/28 11:14:24;;;;;;;;;;;22.10;99.90;;;;;;1932176;73;20171;-73
2021/07/28 11:16:52;;;;;;;;;;;21.90;99.90;;;;;;1933873;72;20110;-73
2021/07/28 11:19:20;;;;;;;;;;;21.90;99.90;;;;;;1920175;72;20232;-71
2021/07/28 11:21:47;;;;;;;;;;;21.80;99.90;;;;;;1925510;72;20232;-73
2021/07/28 11:24:14;;;;;;;;;;;21.70;99.90;;;;;;1929773;73;20914;-73
2021/07/28 11:26:47;;;;;;;;;;;21.70;99.90;;;;;;1895920;74;20197;-73
2021/07/28 11:29:18;;;;;;;;;;;21.60;99.90;;;;;;1931044;73;20168;-73
2021/07/28 11:31:46;;;;;;;;;;;21.60;99.90;;;;;;1912012;74;20179;-72
2021/07/28 11:34:15;;;;;;;;;;;21.60;99.90;;;;;;1923378;72;20176;-73
2021/07/28 11:36:43;;;;;;;;;;;21.60;99.90;;;;;;1937152;73;20163;-72
2021/07/28 11:39:11;;;;;;;;;;;21.50;99.90;;;;;;1943797;72;20163;-73
2021/07/28 11:41:37;;;;;;;;;;;21.40;99.90;;;;;;1921897;74;20157;-72
2021/07/28 11:44:04;;;;;;;;;;;21.40;99.90;;;;;;1914740;73;20183;-73
2021/07/28 11:46:31;;;;;;;;;;;21.30;99.90;;;;;;1933680;74;20257;-73
2021/07/28 11:49:00;;;;;;;;;;;21.30;99.90;;;;;;1927186;72;20121;-72
2021/07/28 11:51:27;;;;;;;;;;;21.10;99.90;;;;;;1915198;73;20882;-74
2021/07/28 11:53:56;;;;;;;;;;;20.80;99.90;;;;;;1932203;73;20803;-73
2021/07/28 11:56:23;;;;;;;;;;;20.60;99.90;;;;;;1944979;73;20232;-72
2021/07/28 11:58:50;;;;;;;;;;;20.20;99.90;;;;;;1936142;72;20491;-72
2021/07/28 12:01:18;;;;;;;;;;;20.00;99.90;;;;;;1919378;74;20221;-72
2021/07/28 12:03:49;;;;;;;;;;;19.80;99.90;;;;;;1890390;76;20184;-72
2021/07/28 12:06:16;;;;;;;;;;;19.80;99.90;;;;;;1905694;74;20171;-72
2021/07/28 12:08:43;;;;;;;;;;;19.50;99.90;;;;;;1910280;72;20150;-72
2021/07/28 12:11:11;;;;;;;;;;;19.40;99.90;;;;;;1938652;74;20291;-71
2021/07/28 12:13:47;;;;;;;;;;;19.30;99.90;;;;;;1945927;74;20171;-72
2021/07/28 12:16:15;;;;;;;;;;;19.30;99.90;;;;;;1924736;74;20444;-72
2021/07/28 12:18:46;;;;;;;;;;;19.20;99.90;;;;;;1889789;75;20193;-72
2021/07/28 12:21:13;;;;;;;;;;;19.10;99.90;;;;;;1938545;73;20448;-71
2021/07/28 12:23:50;;;;;;;;;;;19.10;99.90;;;;;;1935168;73;20486;-71
2021/07/28 12:26:17;;;;;;;;;;;19.00;99.90;;;;;;1920723;73;20207;-72
2021/07/28 12:28:48;;;;;;;;;;;19.00;99.90;;;;;;1927920;73;20500;-72
2021/07/28 12:31:30;;;;;;;;;;;19.00;99.90;;;;;;1918083;74;20169;-71
2021/07/28 12:33:58;;;;;;;;;;;19.10;99.90;;;;;;1932625;73;20117;-71
2021/07/28 12:36:28;;;;;;;;;;;19.40;99.90;;;;;;1926258;74;20256;-71
2021/07/28 12:38:55;;;;;;;;;;;19.70;99.90;;;;;;1930484;72;20130;-72
2021/07/28 12:41:23;;;;;;;;;;;20.00;99.90;;;;;;1923717;73;20184;-73
2021/07/28 12:43:51;;;;;;;;;;;20.50;99.90;;;;;;1930492;74;20173;-71
2021/07/28 12:46:18;;;;;;;;;;;21.00;99.90;;;;;;1920474;74;20171;-72
2021/07/28 12:48:45;;;;;;;;;;;21.10;99.90;;;;;;1890749;75;20137;-73
2021/07/28 12:51:14;;;;;;;;;;;21.10;99.90;;;;;;1925788;73;20104;-71
2021/07/28 12:53:41;;;;;;;;;;;21.40;99.90;;;;;;1914314;74;20131;-71
2021/07/28 12:56:07;;;;;;;;;;;21.60;99.90;;;;;;1926368;73;20173;-72
2021/07/28 12:58:34;;;;;;;;;;;21.40;99.90;;;;;;1941040;72;20386;-71
2021/07/28 13:01:03;;;;;;;;;;;21.30;99.90;;;;;;1940479;73;20410;-72
2021/07/28 13:03:30;;;;;;;;;;;21.40;99.90;;;;;;1938773;73;20123;-72
2021/07/28 13:05:59;;;;;;;;;;;21.60;99.90;;;;;;1929954;74;20178;-72
2021/07/28 13:08:25;;;;;;;;;;;21.70;99.90;;;;;;1924775;73;20465;-72
2021/07/28 13:10:52;;;;;;;;;;;21.60;99.90;;;;;;1924638;73;20123;-71
2021/07/28 13:13:19;;;;;;;;;;;21.50;99.90;;;;;;1938950;73;20848;-72
2021/07/28 13:15:47;;;;;;;;;;;21.40;99.90;;;;;;1935582;74;20201;-72
2021/07/28 13:18:14;;;;;;;;;;;21.70;99.90;;;;;;1904783;72;20438;-72
2021/07/28 13:20:41;;;;;;;;;;;21.90;99.90;;;;;;1915043;74;20573;-71
2021/07/28 13:23:09;;;;;;;;;;;22.40;99.90;;;;;;1909334;73;20173;-72
2021/07/28 13:25:36;;;;;;;;;;;22.70;99.90;;;;;;1893453;76;20212;-71
2021/07/28 13:28:03;;;;;;;;;;;23.00;99.90;;;;;;1903316;74;20252;-71
2021/07/28 13:30:30;;;;;;;;;;;23.20;99.90;;;;;;1909112;74;20181;-72
2021/07/28 13:32:57;;;;;;;;;;;23.30;99.90;;;;;;1892655;74;20171;-72
2021/07/28 13:35:24;;;;;;;;;;;23.40;99.90;;;;;;1922055;74;20201;-72
2021/07/28 13:37:51;;;;;;;;;;;23.60;99.90;;;;;;1892156;74;20206;-72
2021/07/28 13:40:18;;;;;;;;;;;23.70;99.90;;;;;;1908556;74;20130;-73
2021/07/28 13:42:48;;;;;;;;;;;23.60;99.90;;;;;;1892938;74;20201;-74
2021/07/28 13:45:15;;;;;;;;;;;23.70;99.90;;;;;;1890877;74;20200;-74
2021/07/28 13:47:49;;;;;;;;;;;24.00;99.90;;;;;;1893734;76;20528;-74
2021/07/28 13:50:14;;;;;;;;;;;24.00;99.90;;;;;;1890902;74;20120;-73
2021/07/28 13:52:42;;;;;;;;;;;24.00;99.90;;;;;;1905012;74;20159;-73
2021/07/28 13:55:09;;;;;;;;;;;24.20;99.90;;;;;;1899082;74;20209;-73
2021/07/28 13:57:37;;;;;;;;;;;24.00;99.90;;;;;;1888339;76;20496;-73
2021/07/28 14:00:04;;;;;;;;;;;24.40;99.90;;;;;;1893710;74;20406;-73
2021/07/28 14:02:31;;;;;;;;;;;24.20;99.90;;;;;;1926483;74;20512;-73
2021/07/28 14:04:58;;;;;;;;;;;24.60;99.90;;;;;;1907463;74;20171;-73
2021/07/28 14:07:24;;;;;;;;;;;24.50;99.90;;;;;;1894545;74;20216;-73
2021/07/28 14:09:52;;;;;;;;;;;24.90;99.90;;;;;;1906500;74;20186;-73
2021/07/28 14:12:19;;;;;;;;;;;24.70;99.90;;;;;;1903300;74;20511;-73
2021/07/28 14:14:46;;;;;;;;;;;25.00;99.90;;;;;;1897628;74;20180;-73
2021/07/28 14:17:13;;;;;;;;;;;25.30;99.90;;;;;;1908409;74;20195;-74
2021/07/28 14:19:39;;;;;;;;;;;25.60;99.90;;;;;;1882186;74;20177;-72
2021/07/28 14:22:06;;;;;;;;;;;25.70;99.90;;;;;;1878699;76;20166;-71
2021/07/28 14:24:34;;;;;;;;;;;25.90;99.90;;;;;;1885306;75;20481;-73